sensor_id;sensor_type;location;lat;lon;timestamp;P1;durP1;ratioP1;P2;durP2;ratioP2
42864;SDS011;28511;42.680;23.252;2023-03-19T00:01:16;20.63;;;4.38;;
42864;SDS011;28511;42.680;23.252;2023-03-19T00:03:42;7.47;;;3.95;;
42864;SDS011;28511;42.680;23.252;2023-03-19T00:06:07;6.50;;;3.80;;
42864;SDS011;28511;42.680;23.252;2023-03-19T00:08:32;5.93;;;3.55;;
42864;SDS011;28511;42.680;23.252;2023-03-19T00:10:58;6.80;;;3.22;;
42864;SDS011;28511;42.680;23.252;2023-03-19T00:13:23;7.47;;;3.03;;
42864;SDS011;28511;42.680;23.252;2023-03-19T00:15:48;6.70;;;2.95;;
42864;SDS011;28511;42.680;23.252;2023-03-19T00:18:14;6.78;;;2.78;;
42864;SDS011;28511;42.680;23.252;2023-03-19T00:20:39;8.18;;;2.67;;
42864;SDS011;28511;42.680;23.252;2023-03-19T00:23:04;7.85;;;3.53;;
42864;SDS011;28511;42.680;23.252;2023-03-19T00:25:30;4.82;;;2.85;;
42864;SDS011;28511;42.680;23.252;2023-03-19T00:27:55;10.55;;;4.10;;
42864;SDS011;28511;42.680;23.252;2023-03-19T00:30:21;9.00;;;4.57;;
42864;SDS011;28511;42.680;23.252;2023-03-19T00:32:47;8.75;;;3.08;;
42864;SDS011;28511;42.680;23.252;2023-03-19T00:35:12;6.15;;;3.08;;
42864;SDS011;28511;42.680;23.252;2023-03-19T00:37:38;7.80;;;2.70;;
42864;SDS011;28511;42.680;23.252;2023-03-19T00:40:03;3.08;;;2.33;;
42864;SDS011;28511;42.680;23.252;2023-03-19T00:42:29;9.10;;;4.68;;
42864;SDS011;28511;42.680;23.252;2023-03-19T00:44:55;5.80;;;3.13;;
42864;SDS011;28511;42.680;23.252;2023-03-19T00:47:20;11.25;;;3.75;;
42864;SDS011;28511;42.680;23.252;2023-03-19T00:49:46;6.95;;;3.97;;
42864;SDS011;28511;42.680;23.252;2023-03-19T00:52:11;8.75;;;3.97;;
42864;SDS011;28511;42.680;23.252;2023-03-19T00:54:37;5.85;;;2.67;;
42864;SDS011;28511;42.680;23.252;2023-03-19T00:57:02;3.70;;;2.13;;
42864;SDS011;28511;42.680;23.252;2023-03-19T00:59:27;4.63;;;2.15;;
42864;SDS011;28511;42.680;23.252;2023-03-19T01:01:52;6.88;;;2.53;;
42864;SDS011;28511;42.680;23.252;2023-03-19T01:04:18;4.18;;;2.50;;
42864;SDS011;28511;42.680;23.252;2023-03-19T01:06:43;7.82;;;2.85;;
42864;SDS011;28511;42.680;23.252;2023-03-19T01:09:08;4.07;;;2.00;;
42864;SDS011;28511;42.680;23.252;2023-03-19T01:11:33;6.93;;;3.05;;
42864;SDS011;28511;42.680;23.252;2023-03-19T01:13:59;4.63;;;2.30;;
42864;SDS011;28511;42.680;23.252;2023-03-19T01:16:26;6.65;;;2.88;;
42864;SDS011;28511;42.680;23.252;2023-03-19T01:18:51;6.35;;;2.17;;
42864;SDS011;28511;42.680;23.252;2023-03-19T01:21:17;2.78;;;2.03;;
42864;SDS011;28511;42.680;23.252;2023-03-19T01:23:42;6.05;;;2.40;;
42864;SDS011;28511;42.680;23.252;2023-03-19T01:26:08;6.18;;;2.95;;
42864;SDS011;28511;42.680;23.252;2023-03-19T01:28:33;9.50;;;3.20;;
42864;SDS011;28511;42.680;23.252;2023-03-19T01:30:59;2.92;;;2.10;;
42864;SDS011;28511;42.680;23.252;2023-03-19T01:33:25;3.78;;;2.95;;
42864;SDS011;28511;42.680;23.252;2023-03-19T01:35:51;3.25;;;2.42;;
42864;SDS011;28511;42.680;23.252;2023-03-19T01:38:16;8.25;;;2.92;;
42864;SDS011;28511;42.680;23.252;2023-03-19T01:40:45;4.00;;;2.63;;
42864;SDS011;28511;42.680;23.252;2023-03-19T01:43:16;4.50;;;2.10;;
42864;SDS011;28511;42.680;23.252;2023-03-19T01:45:43;7.05;;;2.60;;
42864;SDS011;28511;42.680;23.252;2023-03-19T01:48:15;3.05;;;2.22;;
42864;SDS011;28511;42.680;23.252;2023-03-19T01:50:41;3.08;;;2.22;;
42864;SDS011;28511;42.680;23.252;2023-03-19T01:53:08;9.23;;;3.80;;
42864;SDS011;28511;42.680;23.252;2023-03-19T01:55:35;6.45;;;2.35;;
42864;SDS011;28511;42.680;23.252;2023-03-19T01:58:01;3.70;;;2.35;;
42864;SDS011;28511;42.680;23.252;2023-03-19T02:00:27;3.17;;;2.38;;
42864;SDS011;28511;42.680;23.252;2023-03-19T02:02:52;6.63;;;3.95;;
42864;SDS011;28511;42.680;23.252;2023-03-19T02:05:20;4.72;;;2.40;;
42864;SDS011;28511;42.680;23.252;2023-03-19T02:07:51;4.00;;;2.85;;
42864;SDS011;28511;42.680;23.252;2023-03-19T02:10:17;7.95;;;3.58;;
42864;SDS011;28511;42.680;23.252;2023-03-19T02:12:43;8.30;;;3.25;;
42864;SDS011;28511;42.680;23.252;2023-03-19T02:15:08;3.60;;;2.00;;
42864;SDS011;28511;42.680;23.252;2023-03-19T02:17:34;11.65;;;3.20;;
42864;SDS011;28511;42.680;23.252;2023-03-19T02:20:19;9.18;;;3.42;;
42864;SDS011;28511;42.680;23.252;2023-03-19T02:25:40;2.63;;;2.33;;
42864;SDS011;28511;42.680;23.252;2023-03-19T02:28:08;6.05;;;3.08;;
42864;SDS011;28511;42.680;23.252;2023-03-19T02:30:35;9.32;;;4.32;;
42864;SDS011;28511;42.680;23.252;2023-03-19T02:33:00;7.10;;;3.45;;
42864;SDS011;28511;42.680;23.252;2023-03-19T02:35:26;9.30;;;3.45;;
42864;SDS011;28511;42.680;23.252;2023-03-19T02:37:53;7.43;;;2.08;;
42864;SDS011;28511;42.680;23.252;2023-03-19T02:40:21;4.72;;;2.60;;
42864;SDS011;28511;42.680;23.252;2023-03-19T02:42:46;7.75;;;3.35;;
42864;SDS011;28511;42.680;23.252;2023-03-19T02:45:12;4.85;;;2.05;;
42864;SDS011;28511;42.680;23.252;2023-03-19T02:47:37;6.20;;;2.80;;
42864;SDS011;28511;42.680;23.252;2023-03-19T02:50:02;5.22;;;1.65;;
42864;SDS011;28511;42.680;23.252;2023-03-19T02:52:28;2.17;;;1.40;;
42864;SDS011;28511;42.680;23.252;2023-03-19T02:54:53;6.20;;;2.85;;
42864;SDS011;28511;42.680;23.252;2023-03-19T02:57:18;5.30;;;2.35;;
42864;SDS011;28511;42.680;23.252;2023-03-19T02:59:43;3.53;;;1.73;;
42864;SDS011;28511;42.680;23.252;2023-03-19T03:02:09;4.57;;;2.70;;
42864;SDS011;28511;42.680;23.252;2023-03-19T03:04:34;4.53;;;2.65;;
42864;SDS011;28511;42.680;23.252;2023-03-19T03:07:01;4.43;;;2.83;;
42864;SDS011;28511;42.680;23.252;2023-03-19T03:09:27;9.85;;;3.88;;
42864;SDS011;28511;42.680;23.252;2023-03-19T03:11:52;9.95;;;5.03;;
42864;SDS011;28511;42.680;23.252;2023-03-19T03:14:18;4.90;;;2.92;;
42864;SDS011;28511;42.680;23.252;2023-03-19T03:16:43;6.28;;;3.20;;
42864;SDS011;28511;42.680;23.252;2023-03-19T03:19:08;5.53;;;3.33;;
42864;SDS011;28511;42.680;23.252;2023-03-19T03:21:34;15.93;;;3.60;;
42864;SDS011;28511;42.680;23.252;2023-03-19T03:23:59;7.85;;;4.00;;
42864;SDS011;28511;42.680;23.252;2023-03-19T03:26:25;11.77;;;4.03;;
42864;SDS011;28511;42.680;23.252;2023-03-19T03:28:51;9.90;;;4.25;;
42864;SDS011;28511;42.680;23.252;2023-03-19T03:31:16;5.25;;;2.65;;
42864;SDS011;28511;42.680;23.252;2023-03-19T03:33:41;5.93;;;4.30;;
42864;SDS011;28511;42.680;23.252;2023-03-19T03:36:07;9.65;;;4.78;;
42864;SDS011;28511;42.680;23.252;2023-03-19T03:38:32;5.75;;;2.90;;
42864;SDS011;28511;42.680;23.252;2023-03-19T03:40:58;6.65;;;3.63;;
42864;SDS011;28511;42.680;23.252;2023-03-19T03:43:24;14.13;;;5.53;;
42864;SDS011;28511;42.680;23.252;2023-03-19T03:45:49;8.95;;;3.50;;
42864;SDS011;28511;42.680;23.252;2023-03-19T03:48:15;12.40;;;3.97;;
42864;SDS011;28511;42.680;23.252;2023-03-19T03:50:40;13.18;;;4.30;;
42864;SDS011;28511;42.680;23.252;2023-03-19T03:53:05;8.98;;;4.28;;
42864;SDS011;28511;42.680;23.252;2023-03-19T03:55:31;14.18;;;5.13;;
42864;SDS011;28511;42.680;23.252;2023-03-19T03:57:57;8.55;;;3.30;;
42864;SDS011;28511;42.680;23.252;2023-03-19T04:00:22;14.98;;;4.38;;
42864;SDS011;28511;42.680;23.252;2023-03-19T04:02:48;9.32;;;4.10;;
42864;SDS011;28511;42.680;23.252;2023-03-19T04:05:13;7.50;;;4.07;;
42864;SDS011;28511;42.680;23.252;2023-03-19T04:07:39;7.82;;;3.50;;
42864;SDS011;28511;42.680;23.252;2023-03-19T04:10:05;14.02;;;3.83;;
42864;SDS011;28511;42.680;23.252;2023-03-19T04:12:31;10.07;;;3.85;;
42864;SDS011;28511;42.680;23.252;2023-03-19T04:14:57;12.85;;;3.25;;
42864;SDS011;28511;42.680;23.252;2023-03-19T04:17:22;9.82;;;3.45;;
42864;SDS011;28511;42.680;23.252;2023-03-19T04:19:47;8.55;;;4.57;;
42864;SDS011;28511;42.680;23.252;2023-03-19T04:22:13;5.72;;;3.83;;
42864;SDS011;28511;42.680;23.252;2023-03-19T04:24:38;6.03;;;3.67;;
42864;SDS011;28511;42.680;23.252;2023-03-19T04:27:03;8.77;;;4.82;;
42864;SDS011;28511;42.680;23.252;2023-03-19T04:29:29;7.53;;;4.22;;
42864;SDS011;28511;42.680;23.252;2023-03-19T04:31:54;9.95;;;3.42;;
42864;SDS011;28511;42.680;23.252;2023-03-19T04:34:19;7.90;;;4.93;;
42864;SDS011;28511;42.680;23.252;2023-03-19T04:36:44;8.55;;;4.32;;
42864;SDS011;28511;42.680;23.252;2023-03-19T04:39:10;11.68;;;5.10;;
42864;SDS011;28511;42.680;23.252;2023-03-19T04:41:35;6.78;;;3.60;;
42864;SDS011;28511;42.680;23.252;2023-03-19T04:44:01;10.82;;;5.47;;
42864;SDS011;28511;42.680;23.252;2023-03-19T04:46:26;12.43;;;5.20;;
42864;SDS011;28511;42.680;23.252;2023-03-19T04:48:52;6.05;;;4.22;;
42864;SDS011;28511;42.680;23.252;2023-03-19T04:51:17;5.18;;;3.63;;
42864;SDS011;28511;42.680;23.252;2023-03-19T04:53:45;6.40;;;3.60;;
42864;SDS011;28511;42.680;23.252;2023-03-19T04:56:10;7.57;;;3.47;;
42864;SDS011;28511;42.680;23.252;2023-03-19T04:58:35;7.43;;;3.97;;
42864;SDS011;28511;42.680;23.252;2023-03-19T05:01:01;7.00;;;4.28;;
42864;SDS011;28511;42.680;23.252;2023-03-19T05:03:26;9.02;;;4.82;;
42864;SDS011;28511;42.680;23.252;2023-03-19T05:05:52;8.20;;;3.95;;
42864;SDS011;28511;42.680;23.252;2023-03-19T05:08:17;8.93;;;4.63;;
42864;SDS011;28511;42.680;23.252;2023-03-19T05:10:43;7.97;;;3.85;;
42864;SDS011;28511;42.680;23.252;2023-03-19T05:13:08;7.55;;;5.03;;
42864;SDS011;28511;42.680;23.252;2023-03-19T05:15:33;6.93;;;4.22;;
42864;SDS011;28511;42.680;23.252;2023-03-19T05:17:58;6.93;;;4.60;;
42864;SDS011;28511;42.680;23.252;2023-03-19T05:20:24;7.50;;;4.25;;
42864;SDS011;28511;42.680;23.252;2023-03-19T05:22:50;11.23;;;5.53;;
42864;SDS011;28511;42.680;23.252;2023-03-19T05:25:16;12.10;;;4.00;;
42864;SDS011;28511;42.680;23.252;2023-03-19T05:27:41;3.83;;;2.97;;
42864;SDS011;28511;42.680;23.252;2023-03-19T05:30:06;12.85;;;5.38;;
42864;SDS011;28511;42.680;23.252;2023-03-19T05:32:32;6.22;;;4.18;;
42864;SDS011;28511;42.680;23.252;2023-03-19T05:34:57;6.10;;;3.60;;
42864;SDS011;28511;42.680;23.252;2023-03-19T05:37:23;8.43;;;3.33;;
42864;SDS011;28511;42.680;23.252;2023-03-19T05:39:49;7.78;;;4.95;;
42864;SDS011;28511;42.680;23.252;2023-03-19T05:42:15;10.63;;;5.20;;
42864;SDS011;28511;42.680;23.252;2023-03-19T05:44:40;10.45;;;5.82;;
42864;SDS011;28511;42.680;23.252;2023-03-19T05:47:06;11.18;;;4.63;;
42864;SDS011;28511;42.680;23.252;2023-03-19T05:49:32;11.13;;;5.45;;
42864;SDS011;28511;42.680;23.252;2023-03-19T05:51:58;14.20;;;5.15;;
42864;SDS011;28511;42.680;23.252;2023-03-19T05:54:23;21.63;;;4.97;;
42864;SDS011;28511;42.680;23.252;2023-03-19T05:56:48;12.05;;;5.78;;
42864;SDS011;28511;42.680;23.252;2023-03-19T05:59:14;17.77;;;6.60;;
42864;SDS011;28511;42.680;23.252;2023-03-19T06:01:39;14.07;;;5.22;;
42864;SDS011;28511;42.680;23.252;2023-03-19T06:04:04;10.80;;;5.32;;
42864;SDS011;28511;42.680;23.252;2023-03-19T06:06:30;12.02;;;6.05;;
42864;SDS011;28511;42.680;23.252;2023-03-19T06:08:55;12.40;;;5.82;;
42864;SDS011;28511;42.680;23.252;2023-03-19T06:11:21;10.68;;;5.68;;
42864;SDS011;28511;42.680;23.252;2023-03-19T06:13:46;8.77;;;4.25;;
42864;SDS011;28511;42.680;23.252;2023-03-19T06:16:11;9.57;;;6.05;;
42864;SDS011;28511;42.680;23.252;2023-03-19T06:18:37;13.82;;;6.05;;
42864;SDS011;28511;42.680;23.252;2023-03-19T06:21:02;12.68;;;5.90;;
42864;SDS011;28511;42.680;23.252;2023-03-19T06:23:28;9.80;;;5.07;;
42864;SDS011;28511;42.680;23.252;2023-03-19T06:25:53;8.25;;;4.25;;
42864;SDS011;28511;42.680;23.252;2023-03-19T06:28:19;10.57;;;5.72;;
42864;SDS011;28511;42.680;23.252;2023-03-19T06:30:44;9.10;;;5.25;;
42864;SDS011;28511;42.680;23.252;2023-03-19T06:33:09;15.82;;;6.38;;
42864;SDS011;28511;42.680;23.252;2023-03-19T06:35:34;8.15;;;4.68;;
42864;SDS011;28511;42.680;23.252;2023-03-19T06:38:00;15.65;;;5.88;;
42864;SDS011;28511;42.680;23.252;2023-03-19T06:40:25;9.57;;;5.30;;
42864;SDS011;28511;42.680;23.252;2023-03-19T06:42:50;9.25;;;5.63;;
42864;SDS011;28511;42.680;23.252;2023-03-19T06:45:16;9.48;;;4.97;;
42864;SDS011;28511;42.680;23.252;2023-03-19T06:47:42;14.80;;;5.63;;
42864;SDS011;28511;42.680;23.252;2023-03-19T06:50:08;10.13;;;5.33;;
42864;SDS011;28511;42.680;23.252;2023-03-19T06:52:34;11.75;;;6.35;;
42864;SDS011;28511;42.680;23.252;2023-03-19T06:54:59;10.32;;;5.28;;
42864;SDS011;28511;42.680;23.252;2023-03-19T06:57:25;11.63;;;5.82;;
42864;SDS011;28511;42.680;23.252;2023-03-19T06:59:51;9.35;;;5.70;;
42864;SDS011;28511;42.680;23.252;2023-03-19T07:02:16;8.98;;;5.05;;
42864;SDS011;28511;42.680;23.252;2023-03-19T07:04:41;12.60;;;6.07;;
42864;SDS011;28511;42.680;23.252;2023-03-19T07:07:06;12.17;;;6.57;;
42864;SDS011;28511;42.680;23.252;2023-03-19T07:09:32;10.82;;;5.25;;
42864;SDS011;28511;42.680;23.252;2023-03-19T07:11:57;8.98;;;5.22;;
42864;SDS011;28511;42.680;23.252;2023-03-19T07:14:22;13.23;;;5.70;;
42864;SDS011;28511;42.680;23.252;2023-03-19T07:16:48;13.07;;;5.15;;
42864;SDS011;28511;42.680;23.252;2023-03-19T07:19:13;9.52;;;4.85;;
42864;SDS011;28511;42.680;23.252;2023-03-19T07:21:38;10.10;;;4.57;;
42864;SDS011;28511;42.680;23.252;2023-03-19T07:24:04;8.50;;;4.57;;
42864;SDS011;28511;42.680;23.252;2023-03-19T07:26:29;11.63;;;6.30;;
42864;SDS011;28511;42.680;23.252;2023-03-19T07:28:55;10.00;;;5.38;;
42864;SDS011;28511;42.680;23.252;2023-03-19T07:31:20;10.43;;;5.30;;
42864;SDS011;28511;42.680;23.252;2023-03-19T07:33:46;10.50;;;4.97;;
42864;SDS011;28511;42.680;23.252;2023-03-19T07:36:11;11.43;;;4.88;;
42864;SDS011;28511;42.680;23.252;2023-03-19T07:38:36;9.38;;;5.20;;
42864;SDS011;28511;42.680;23.252;2023-03-19T07:41:02;9.07;;;5.60;;
42864;SDS011;28511;42.680;23.252;2023-03-19T07:43:28;10.48;;;4.95;;
42864;SDS011;28511;42.680;23.252;2023-03-19T07:45:53;9.07;;;5.63;;
42864;SDS011;28511;42.680;23.252;2023-03-19T07:48:18;11.02;;;5.63;;
42864;SDS011;28511;42.680;23.252;2023-03-19T07:50:44;12.82;;;8.00;;
42864;SDS011;28511;42.680;23.252;2023-03-19T07:53:09;9.00;;;5.15;;
42864;SDS011;28511;42.680;23.252;2023-03-19T07:55:35;12.25;;;5.80;;
42864;SDS011;28511;42.680;23.252;2023-03-19T07:58:01;10.07;;;5.75;;
42864;SDS011;28511;42.680;23.252;2023-03-19T08:00:27;9.30;;;5.10;;
42864;SDS011;28511;42.680;23.252;2023-03-19T08:02:52;9.80;;;5.33;;
42864;SDS011;28511;42.680;23.252;2023-03-19T08:05:17;12.40;;;5.00;;
42864;SDS011;28511;42.680;23.252;2023-03-19T08:07:42;18.30;;;5.80;;
42864;SDS011;28511;42.680;23.252;2023-03-19T08:10:09;9.45;;;5.25;;
42864;SDS011;28511;42.680;23.252;2023-03-19T08:12:35;12.95;;;6.72;;
42864;SDS011;28511;42.680;23.252;2023-03-19T08:15:05;12.35;;;7.32;;
42864;SDS011;28511;42.680;23.252;2023-03-19T08:17:31;15.45;;;8.07;;
42864;SDS011;28511;42.680;23.252;2023-03-19T08:20:02;15.10;;;6.13;;
42864;SDS011;28511;42.680;23.252;2023-03-19T08:22:28;10.10;;;5.80;;
42864;SDS011;28511;42.680;23.252;2023-03-19T08:24:53;14.23;;;7.28;;
42864;SDS011;28511;42.680;23.252;2023-03-19T08:27:18;17.00;;;7.13;;
42864;SDS011;28511;42.680;23.252;2023-03-19T08:29:44;11.77;;;6.47;;
42864;SDS011;28511;42.680;23.252;2023-03-19T08:32:09;14.83;;;8.00;;
42864;SDS011;28511;42.680;23.252;2023-03-19T08:34:35;14.30;;;7.13;;
42864;SDS011;28511;42.680;23.252;2023-03-19T08:37:00;12.50;;;6.88;;
42864;SDS011;28511;42.680;23.252;2023-03-19T08:39:25;16.87;;;8.03;;
42864;SDS011;28511;42.680;23.252;2023-03-19T08:41:51;12.73;;;7.72;;
42864;SDS011;28511;42.680;23.252;2023-03-19T08:44:16;10.67;;;6.50;;
42864;SDS011;28511;42.680;23.252;2023-03-19T08:46:41;11.50;;;6.18;;
42864;SDS011;28511;42.680;23.252;2023-03-19T08:49:07;11.07;;;7.28;;
42864;SDS011;28511;42.680;23.252;2023-03-19T08:51:32;24.10;;;7.43;;
42864;SDS011;28511;42.680;23.252;2023-03-19T08:53:57;13.50;;;7.67;;
42864;SDS011;28511;42.680;23.252;2023-03-19T08:56:22;13.23;;;6.22;;
42864;SDS011;28511;42.680;23.252;2023-03-19T08:58:48;12.13;;;7.53;;
42864;SDS011;28511;42.680;23.252;2023-03-19T09:01:13;16.08;;;7.38;;
42864;SDS011;28511;42.680;23.252;2023-03-19T09:03:39;16.33;;;7.50;;
42864;SDS011;28511;42.680;23.252;2023-03-19T09:06:06;15.50;;;8.13;;
42864;SDS011;28511;42.680;23.252;2023-03-19T09:08:32;12.90;;;7.25;;
42864;SDS011;28511;42.680;23.252;2023-03-19T09:10:58;15.13;;;7.28;;
42864;SDS011;28511;42.680;23.252;2023-03-19T09:13:23;15.18;;;7.53;;
42864;SDS011;28511;42.680;23.252;2023-03-19T09:15:49;14.90;;;8.40;;
42864;SDS011;28511;42.680;23.252;2023-03-19T09:18:14;17.15;;;7.75;;
42864;SDS011;28511;42.680;23.252;2023-03-19T09:20:40;12.07;;;7.57;;
42864;SDS011;28511;42.680;23.252;2023-03-19T09:23:06;15.82;;;8.23;;
42864;SDS011;28511;42.680;23.252;2023-03-19T09:25:31;12.77;;;7.17;;
42864;SDS011;28511;42.680;23.252;2023-03-19T09:27:56;11.20;;;6.37;;
42864;SDS011;28511;42.680;23.252;2023-03-19T09:30:22;11.35;;;6.75;;
42864;SDS011;28511;42.680;23.252;2023-03-19T09:32:47;11.57;;;6.43;;
42864;SDS011;28511;42.680;23.252;2023-03-19T09:35:12;9.70;;;5.45;;
42864;SDS011;28511;42.680;23.252;2023-03-19T09:37:38;10.18;;;5.80;;
42864;SDS011;28511;42.680;23.252;2023-03-19T09:40:03;12.65;;;5.82;;
42864;SDS011;28511;42.680;23.252;2023-03-19T09:42:48;10.95;;;5.88;;
42864;SDS011;28511;42.680;23.252;2023-03-19T09:45:17;8.65;;;4.50;;
42864;SDS011;28511;42.680;23.252;2023-03-19T09:47:44;11.80;;;4.45;;
42864;SDS011;28511;42.680;23.252;2023-03-19T09:52:46;8.88;;;4.82;;
42864;SDS011;28511;42.680;23.252;2023-03-19T09:57:56;10.10;;;4.57;;
42864;SDS011;28511;42.680;23.252;2023-03-19T10:00:29;8.82;;;4.10;;
42864;SDS011;28511;42.680;23.252;2023-03-19T10:05:27;9.02;;;4.45;;
42864;SDS011;28511;42.680;23.252;2023-03-19T10:08:06;11.40;;;4.57;;
42864;SDS011;28511;42.680;23.252;2023-03-19T10:15:40;5.80;;;2.80;;
42864;SDS011;28511;42.680;23.252;2023-03-19T10:18:10;7.35;;;3.67;;
42864;SDS011;28511;42.680;23.252;2023-03-19T10:25:47;7.63;;;3.53;;
42864;SDS011;28511;42.680;23.252;2023-03-19T10:28:14;10.20;;;4.35;;
42864;SDS011;28511;42.680;23.252;2023-03-19T10:30:41;7.63;;;4.30;;
42864;SDS011;28511;42.680;23.252;2023-03-19T10:33:16;6.43;;;3.15;;
42864;SDS011;28511;42.680;23.252;2023-03-19T10:35:47;7.90;;;3.70;;
42864;SDS011;28511;42.680;23.252;2023-03-19T10:38:20;6.22;;;3.95;;
42864;SDS011;28511;42.680;23.252;2023-03-19T10:43:21;5.97;;;3.60;;
42864;SDS011;28511;42.680;23.252;2023-03-19T10:45:47;7.90;;;4.05;;
42864;SDS011;28511;42.680;23.252;2023-03-19T10:48:16;6.82;;;4.22;;
42864;SDS011;28511;42.680;23.252;2023-03-19T10:50:47;11.52;;;4.57;;
42864;SDS011;28511;42.680;23.252;2023-03-19T10:55:46;12.90;;;4.40;;
42864;SDS011;28511;42.680;23.252;2023-03-19T10:58:15;7.13;;;3.80;;
42864;SDS011;28511;42.680;23.252;2023-03-19T11:00:41;7.18;;;3.60;;
42864;SDS011;28511;42.680;23.252;2023-03-19T11:08:27;6.97;;;3.85;;
42864;SDS011;28511;42.680;23.252;2023-03-19T11:10:52;6.38;;;4.10;;
42864;SDS011;28511;42.680;23.252;2023-03-19T11:13:24;7.97;;;3.40;;
42864;SDS011;28511;42.680;23.252;2023-03-19T11:15:51;8.35;;;3.58;;
42864;SDS011;28511;42.680;23.252;2023-03-19T11:18:20;9.80;;;4.10;;
42864;SDS011;28511;42.680;23.252;2023-03-19T11:21:13;6.53;;;3.28;;
42864;SDS011;28511;42.680;23.252;2023-03-19T11:23:39;9.40;;;4.63;;
42864;SDS011;28511;42.680;23.252;2023-03-19T11:26:05;8.63;;;4.15;;
42864;SDS011;28511;42.680;23.252;2023-03-19T11:28:31;11.13;;;4.88;;
42864;SDS011;28511;42.680;23.252;2023-03-19T11:31:01;9.00;;;4.90;;
42864;SDS011;28511;42.680;23.252;2023-03-19T11:38:38;6.88;;;3.85;;
42864;SDS011;28511;42.680;23.252;2023-03-19T11:46:15;9.57;;;4.90;;
42864;SDS011;28511;42.680;23.252;2023-03-19T11:51:09;9.67;;;4.17;;
42864;SDS011;28511;42.680;23.252;2023-03-19T11:54:12;6.03;;;3.33;;
42864;SDS011;28511;42.680;23.252;2023-03-19T11:56:42;6.38;;;3.40;;
42864;SDS011;28511;42.680;23.252;2023-03-19T12:06:47;7.75;;;4.00;;
42864;SDS011;28511;42.680;23.252;2023-03-19T12:11:53;8.55;;;4.38;;
42864;SDS011;28511;42.680;23.252;2023-03-19T12:14:48;7.63;;;4.53;;
42864;SDS011;28511;42.680;23.252;2023-03-19T12:35:07;9.25;;;4.30;;
42864;SDS011;28511;42.680;23.252;2023-03-19T12:43:00;6.18;;;3.25;;
42864;SDS011;28511;42.680;23.252;2023-03-19T12:47:59;7.45;;;3.67;;
42864;SDS011;28511;42.680;23.252;2023-03-19T12:50:26;6.07;;;3.75;;
42864;SDS011;28511;42.680;23.252;2023-03-19T12:52:52;7.57;;;2.85;;
42864;SDS011;28511;42.680;23.252;2023-03-19T12:55:29;8.93;;;3.20;;
42864;SDS011;28511;42.680;23.252;2023-03-19T12:58:02;6.88;;;3.22;;
42864;SDS011;28511;42.680;23.252;2023-03-19T13:00:33;5.35;;;3.00;;
42864;SDS011;28511;42.680;23.252;2023-03-19T13:05:30;5.77;;;3.43;;
42864;SDS011;28511;42.680;23.252;2023-03-19T13:07:58;5.93;;;2.95;;
42864;SDS011;28511;42.680;23.252;2023-03-19T13:10:26;5.97;;;2.90;;
42864;SDS011;28511;42.680;23.252;2023-03-19T13:12:54;6.53;;;3.20;;
42864;SDS011;28511;42.680;23.252;2023-03-19T13:22:42;7.03;;;4.05;;
42864;SDS011;28511;42.680;23.252;2023-03-19T13:25:13;6.00;;;2.67;;
42864;SDS011;28511;42.680;23.252;2023-03-19T13:27:39;8.23;;;3.60;;
42864;SDS011;28511;42.680;23.252;2023-03-19T13:30:10;5.13;;;3.28;;
42864;SDS011;28511;42.680;23.252;2023-03-19T13:32:46;4.20;;;3.08;;
42864;SDS011;28511;42.680;23.252;2023-03-19T13:37:44;9.30;;;3.33;;
42864;SDS011;28511;42.680;23.252;2023-03-19T13:40:43;5.53;;;2.58;;
42864;SDS011;28511;42.680;23.252;2023-03-19T13:43:01;5.53;;;2.70;;
42864;SDS011;28511;42.680;23.252;2023-03-19T13:45:28;4.80;;;2.80;;
42864;SDS011;28511;42.680;23.252;2023-03-19T13:47:54;6.93;;;3.78;;
42864;SDS011;28511;42.680;23.252;2023-03-19T13:50:23;6.28;;;2.90;;
42864;SDS011;28511;42.680;23.252;2023-03-19T13:52:50;4.75;;;2.58;;
42864;SDS011;28511;42.680;23.252;2023-03-19T13:55:30;6.82;;;3.10;;
42864;SDS011;28511;42.680;23.252;2023-03-19T14:05:43;9.07;;;3.30;;
42864;SDS011;28511;42.680;23.252;2023-03-19T14:08:13;8.98;;;3.03;;
42864;SDS011;28511;42.680;23.252;2023-03-19T14:10:44;5.18;;;3.20;;
42864;SDS011;28511;42.680;23.252;2023-03-19T14:13:15;6.13;;;2.95;;
42864;SDS011;28511;42.680;23.252;2023-03-19T14:15:47;5.82;;;2.75;;
42864;SDS011;28511;42.680;23.252;2023-03-19T14:18:14;8.02;;;4.13;;
42864;SDS011;28511;42.680;23.252;2023-03-19T14:28:17;3.85;;;2.38;;
42864;SDS011;28511;42.680;23.252;2023-03-19T14:30:44;8.55;;;4.18;;
42864;SDS011;28511;42.680;23.252;2023-03-19T14:36:13;7.05;;;2.97;;
42864;SDS011;28511;42.680;23.252;2023-03-19T14:38:41;9.77;;;3.00;;
42864;SDS011;28511;42.680;23.252;2023-03-19T14:41:09;3.38;;;2.28;;
42864;SDS011;28511;42.680;23.252;2023-03-19T14:46:40;6.75;;;3.25;;
42864;SDS011;28511;42.680;23.252;2023-03-19T14:52:03;8.88;;;2.75;;
42864;SDS011;28511;42.680;23.252;2023-03-19T14:54:37;3.05;;;2.45;;
42864;SDS011;28511;42.680;23.252;2023-03-19T14:57:05;6.88;;;3.45;;
42864;SDS011;28511;42.680;23.252;2023-03-19T14:59:40;6.50;;;2.85;;
42864;SDS011;28511;42.680;23.252;2023-03-19T15:04:50;3.97;;;2.15;;
42864;SDS011;28511;42.680;23.252;2023-03-19T15:07:19;6.00;;;2.97;;
42864;SDS011;28511;42.680;23.252;2023-03-19T15:09:45;6.18;;;3.78;;
42864;SDS011;28511;42.680;23.252;2023-03-19T15:17:23;5.10;;;2.92;;
42864;SDS011;28511;42.680;23.252;2023-03-19T15:19:48;7.50;;;3.13;;
42864;SDS011;28511;42.680;23.252;2023-03-19T15:24:42;4.20;;;2.33;;
42864;SDS011;28511;42.680;23.252;2023-03-19T15:27:21;12.90;;;3.05;;
42864;SDS011;28511;42.680;23.252;2023-03-19T15:29:47;29.88;;;15.75;;
42864;SDS011;28511;42.680;23.252;2023-03-19T15:32:12;16.58;;;8.45;;
42864;SDS011;28511;42.680;23.252;2023-03-19T15:34:37;10.45;;;4.25;;
42864;SDS011;28511;42.680;23.252;2023-03-19T15:37:07;15.48;;;8.57;;
42864;SDS011;28511;42.680;23.252;2023-03-19T15:39:34;7.72;;;4.30;;
42864;SDS011;28511;42.680;23.252;2023-03-19T15:42:02;8.80;;;4.75;;
42864;SDS011;28511;42.680;23.252;2023-03-19T15:44:30;7.75;;;4.10;;
42864;SDS011;28511;42.680;23.252;2023-03-19T15:46:57;35.75;;;6.10;;
42864;SDS011;28511;42.680;23.252;2023-03-19T15:49:27;8.95;;;4.97;;
42864;SDS011;28511;42.680;23.252;2023-03-19T15:51:54;8.80;;;4.32;;
42864;SDS011;28511;42.680;23.252;2023-03-19T15:54:21;9.25;;;4.38;;
42864;SDS011;28511;42.680;23.252;2023-03-19T15:56:48;8.30;;;4.13;;
42864;SDS011;28511;42.680;23.252;2023-03-19T15:59:14;7.82;;;4.28;;
42864;SDS011;28511;42.680;23.252;2023-03-19T16:01:41;10.30;;;5.65;;
42864;SDS011;28511;42.680;23.252;2023-03-19T16:04:07;10.90;;;5.28;;
42864;SDS011;28511;42.680;23.252;2023-03-19T16:06:36;5.40;;;3.70;;
42864;SDS011;28511;42.680;23.252;2023-03-19T16:09:11;7.25;;;3.67;;
42864;SDS011;28511;42.680;23.252;2023-03-19T16:11:42;11.45;;;4.97;;
42864;SDS011;28511;42.680;23.252;2023-03-19T16:16:33;19.70;;;6.05;;
42864;SDS011;28511;42.680;23.252;2023-03-19T16:19:00;13.07;;;6.28;;
42864;SDS011;28511;42.680;23.252;2023-03-19T16:21:32;11.40;;;4.82;;
42864;SDS011;28511;42.680;23.252;2023-03-19T16:24:00;12.80;;;5.05;;
42864;SDS011;28511;42.680;23.252;2023-03-19T16:31:49;15.38;;;7.07;;
42864;SDS011;28511;42.680;23.252;2023-03-19T16:36:49;22.50;;;10.48;;
42864;SDS011;28511;42.680;23.252;2023-03-19T16:44:32;11.25;;;7.20;;
42864;SDS011;28511;42.680;23.252;2023-03-19T16:46:57;13.35;;;6.05;;
42864;SDS011;28511;42.680;23.252;2023-03-19T16:49:23;10.83;;;6.03;;
42864;SDS011;28511;42.680;23.252;2023-03-19T16:51:48;11.20;;;5.30;;